Time;durP1;ratioP1;P1;durP2;ratioP2;P2;SDS_P1;SDS_P2;PMS_P1;PMS_P2;Temp;Humidity;BMP_temperature;BMP_pressure;BME280_temperature;BME280_humidity;BME280_pressure;Samples;Min_cycle;Max_cycle;Signal;HPM_P1;HPM_P2
2022/04/08 00:04:33;;;;;;;1.10;0.60;;;17.20;59.90;;;;;;10390327;28;20081;-52
2022/04/08 00:09:34;;;;;;;0.73;0.30;;;17.10;60.70;;;;;;10376981;28;20044;-54
2022/04/08 00:14:35;;;;;;;0.65;0.35;;;17.10;60.10;;;;;;10376532;28;20053;-53
2022/04/08 00:19:36;;;;;;;1.85;0.50;;;17.10;60.10;;;;;;10376766;28;20112;-52
2022/04/08 00:24:37;;;;;;;1.25;0.40;;;17.10;60.20;;;;;;10371912;28;20490;-52
2022/04/08 00:29:38;;;;;;;1.40;0.57;;;17.10;60.10;;;;;;10376252;28;20033;-53
2022/04/08 00:34:39;;;;;;;1.50;0.30;;;17.10;59.90;;;;;;10378398;28;20040;-52
2022/04/08 00:39:40;;;;;;;1.48;0.47;;;17.30;59.50;;;;;;10405219;28;20439;-54
2022/04/08 00:44:41;;;;;;;1.20;0.60;;;17.30;59.50;;;;;;10371064;28;20030;-52
2022/04/08 00:49:42;;;;;;;1.48;0.40;;;17.20;59.60;;;;;;10380153;28;20513;-52
2022/04/08 00:54:45;;;;;;;0.63;0.35;;;17.20;59.60;;;;;;10415778;28;20033;-53
2022/04/08 00:59:46;;;;;;;0.55;0.30;;;17.20;59.40;;;;;;10371942;28;20723;-52
2022/04/08 01:04:47;;;;;;;0.82;0.35;;;17.20;59.50;;;;;;10376037;28;20120;-52
2022/04/08 01:09:48;;;;;;;1.02;0.57;;;17.20;59.60;;;;;;10377638;28;20065;-52
2022/04/08 01:14:59;;;;;;;1.02;0.30;;;17.20;59.40;;;;;;10369849;28;20088;-53
2022/04/08 01:20:00;;;;;;;1.48;0.50;;;17.20;59.50;;;;;;10374301;28;20405;-53
2022/04/08 01:25:07;;;;;;;0.98;0.30;;;17.20;59.60;;;;;;10373975;28;20032;-52
2022/04/08 01:30:16;;;;;;;1.15;0.20;;;17.10;59.70;;;;;;10414317;28;20041;-52
2022/04/08 01:35:17;;;;;;;1.50;0.40;;;17.10;59.60;;;;;;10400909;28;20044;-53
2022/04/08 01:40:18;;;;;;;0.88;0.30;;;17.10;59.50;;;;;;10373386;28;20042;-54
2022/04/08 01:45:19;;;;;;;1.27;0.47;;;17.10;59.70;;;;;;10373905;28;20021;-51
2022/04/08 01:50:21;;;;;;;1.13;0.40;;;17.10;59.50;;;;;;10373111;28;20057;-54
2022/04/08 01:55:22;;;;;;;1.63;0.47;;;17.20;59.50;;;;;;10373608;28;20025;-54
2022/04/08 02:00:23;;;;;;;0.55;0.20;;;17.10;59.50;;;;;;10385633;28;20037;-53
2022/04/08 02:05:24;;;;;;;1.48;0.30;;;17.20;59.50;;;;;;10380899;28;20052;-53
2022/04/08 02:10:26;;;;;;;1.15;0.30;;;17.20;59.40;;;;;;10413214;28;20120;-50
2022/04/08 02:15:32;;;;;;;0.85;0.40;;;17.10;59.50;;;;;;10381454;28;20044;-52
2022/04/08 02:20:34;;;;;;;0.63;0.30;;;17.20;59.40;;;;;;10382796;28;20026;-52
2022/04/08 02:25:35;;;;;;;1.52;0.60;;;17.20;59.30;;;;;;10409092;28;20080;-52
2022/04/08 02:30:37;;;;;;;1.10;0.43;;;17.10;59.50;;;;;;10413231;28;20026;-52
2022/04/08 02:35:38;;;;;;;1.33;0.30;;;17.20;59.40;;;;;;10396808;28;20583;-51
2022/04/08 02:40:38;;;;;;;1.08;0.40;;;17.20;59.40;;;;;;10372013;28;20168;-52
2022/04/08 02:45:39;;;;;;;1.33;0.70;;;17.10;59.50;;;;;;10373486;28;20033;-53
2022/04/08 02:50:41;;;;;;;0.60;0.20;;;17.20;59.30;;;;;;10379990;28;20034;-53
2022/04/08 02:55:42;;;;;;;1.02;0.50;;;17.20;59.20;;;;;;10380163;28;20064;-54
2022/04/08 03:00:43;;;;;;;0.45;0.30;;;17.10;59.30;;;;;;10379594;28;20033;-53
2022/04/08 03:05:43;;;;;;;1.25;0.60;;;17.10;59.30;;;;;;10386864;28;20100;-53
2022/04/08 03:10:44;;;;;;;1.08;0.40;;;17.20;59.20;;;;;;10419180;28;20038;-51
2022/04/08 03:15:45;;;;;;;0.93;0.30;;;17.10;59.30;;;;;;10419389;28;20061;-52
2022/04/08 03:20:46;;;;;;;0.63;0.30;;;17.20;59.20;;;;;;10419686;28;20527;-52
2022/04/08 03:25:47;;;;;;;0.60;0.30;;;17.20;59.00;;;;;;10418863;28;20670;-51
2022/04/08 03:30:48;;;;;;;1.00;0.32;;;17.10;59.10;;;;;;10375223;28;20041;-53
2022/04/08 03:35:49;;;;;;;0.73;0.30;;;17.20;59.10;;;;;;10412733;28;20096;-54
2022/04/08 03:40:49;;;;;;;0.75;0.20;;;17.20;59.00;;;;;;10418952;28;20106;-53
2022/04/08 03:45:50;;;;;;;1.92;0.40;;;17.20;59.20;;;;;;10418030;28;20124;-51
2022/04/08 03:50:51;;;;;;;0.85;0.20;;;17.20;59.00;;;;;;10418477;28;20489;-53
2022/04/08 03:55:52;;;;;;;1.27;0.40;;;17.20;58.90;;;;;;10386403;28;20409;-53
2022/04/08 04:00:53;;;;;;;1.17;0.50;;;17.10;59.00;;;;;;10418226;28;20504;-53
2022/04/08 04:05:54;;;;;;;0.82;0.57;;;17.20;59.00;;;;;;10407708;28;20026;-53
2022/04/08 04:10:55;;;;;;;1.25;0.30;;;17.20;59.00;;;;;;10376623;28;20050;-53
2022/04/08 04:15:55;;;;;;;1.15;0.35;;;17.10;59.00;;;;;;10376696;28;20033;-53
2022/04/08 04:20:57;;;;;;;0.63;0.20;;;17.20;58.90;;;;;;10385820;28;20057;-51
2022/04/08 04:25:58;;;;;;;1.45;0.52;;;17.20;58.80;;;;;;10376503;28;20037;-53
2022/04/08 04:30:59;;;;;;;1.90;0.30;;;17.20;59.00;;;;;;10376210;28;20504;-53
2022/04/08 04:36:01;;;;;;;0.65;0.30;;;17.20;58.90;;;;;;10382462;28;20091;-53
2022/04/08 04:41:02;;;;;;;0.82;0.32;;;17.20;58.90;;;;;;10393749;28;20434;-53
2022/04/08 04:46:05;;;;;;;1.02;0.30;;;17.20;59.00;;;;;;10410302;28;20065;-53
2022/04/08 04:51:06;;;;;;;0.80;0.40;;;17.20;58.90;;;;;;10377604;28;20053;-52
2022/04/08 04:56:07;;;;;;;1.85;0.43;;;17.20;58.80;;;;;;10380993;28;20099;-51
2022/04/08 05:01:08;;;;;;;4.03;0.75;;;17.20;59.10;;;;;;10387276;28;20046;-54
2022/04/08 05:06:08;;;;;;;5.85;0.77;;;17.20;59.90;;;;;;10375725;28;20383;-56
2022/04/08 05:11:09;;;;;;;3.42;0.60;;;17.30;60.60;;;;;;10373719;28;20052;-56
2022/04/08 05:16:10;;;;;;;4.07;0.65;;;17.30;61.80;;;;;;10387716;28;20032;-56
2022/04/08 05:21:11;;;;;;;5.25;0.95;;;17.40;62.80;;;;;;10374198;28;20029;-54
2022/04/08 05:26:12;;;;;;;7.43;1.10;;;17.30;63.00;;;;;;10400499;28;20481;-56
2022/04/08 05:31:14;;;;;;;7.43;1.27;;;17.30;63.60;;;;;;10383782;28;20140;-54
2022/04/08 05:36:14;;;;;;;3.75;1.05;;;17.30;63.40;;;;;;10379890;28;20109;-53
2022/04/08 05:41:15;;;;;;;10.25;1.42;;;17.20;63.70;;;;;;10382784;28;20041;-53
2022/04/08 05:46:16;;;;;;;7.03;1.08;;;17.10;63.60;;;;;;10381119;28;20505;-55
2022/04/08 05:51:17;;;;;;;15.13;2.05;;;17.10;63.30;;;;;;10372572;28;20387;-55
2022/04/08 05:56:18;;;;;;;12.20;1.95;;;16.90;63.00;;;;;;10374386;28;20371;-55
2022/04/08 06:01:19;;;;;;;12.30;2.08;;;17.00;63.90;;;;;;10390121;28;20120;-55
2022/04/08 06:06:20;;;;;;;14.88;2.10;;;17.00;63.60;;;;;;10356754;28;20041;-56
2022/04/08 06:11:21;;;;;;;15.18;2.40;;;16.90;63.80;;;;;;10407442;28;20037;-51
2022/04/08 06:16:25;;;;;;;11.05;2.40;;;16.80;63.70;;;;;;10389163;28;20108;-49
2022/04/08 06:21:26;;;;;;;15.32;2.55;;;16.80;63.40;;;;;;10369657;28;20374;-55
2022/04/08 06:26:27;;;;;;;11.70;1.83;;;16.60;63.30;;;;;;10369816;28;20100;-52
2022/04/08 06:31:29;;;;;;;6.63;1.90;;;16.60;63.40;;;;;;10393850;28;20494;-53
2022/04/08 06:36:30;;;;;;;12.65;2.35;;;16.60;63.30;;;;;;10388833;28;20088;-52
2022/04/08 06:41:31;;;;;;;14.50;2.25;;;16.50;63.30;;;;;;10378549;28;20080;-54
2022/04/08 06:46:31;;;;;;;12.55;2.20;;;16.70;62.80;;;;;;10380065;28;20030;-53
2022/04/08 06:51:32;;;;;;;13.05;2.03;;;16.80;62.40;;;;;;10370764;28;20116;-53
2022/04/08 06:56:33;;;;;;;14.57;2.20;;;16.90;62.70;;;;;;10374107;28;20029;-54
2022/04/08 07:01:34;;;;;;;14.13;2.67;;;16.90;63.00;;;;;;10412029;28;20060;-50
2022/04/08 07:06:34;;;;;;;15.38;2.30;;;16.80;63.30;;;;;;10406556;28;20041;-49
2022/04/08 07:11:35;;;;;;;18.77;2.42;;;16.80;63.70;;;;;;10391926;28;20375;-55
2022/04/08 07:16:36;;;;;;;12.20;1.70;;;16.80;63.50;;;;;;10380715;28;20452;-53
2022/04/08 07:21:37;;;;;;;12.50;3.30;;;16.80;63.90;;;;;;10411400;28;20036;-49
2022/04/08 07:26:38;;;;;;;11.85;2.15;;;16.70;63.60;;;;;;10374802;28;20037;-49
2022/04/08 07:31:38;;;;;;;10.63;1.58;;;16.70;63.50;;;;;;10371139;28;20046;-55
2022/04/08 07:36:39;;;;;;;8.50;2.05;;;16.70;63.10;;;;;;10381315;28;20052;-54
2022/04/08 07:41:40;;;;;;;5.90;1.88;;;16.70;63.70;;;;;;10374989;28;20048;-52
2022/04/08 07:46:40;;;;;;;6.82;1.13;;;16.70;63.00;;;;;;10390120;28;20108;-54
2022/04/08 07:51:42;;;;;;;9.13;1.92;;;16.70;62.90;;;;;;10417669;28;20430;-53
2022/04/08 07:56:42;;;;;;;11.32;2.10;;;16.70;63.00;;;;;;10369148;28;20421;-52
2022/04/08 08:01:43;;;;;;;9.20;2.78;;;16.70;62.90;;;;;;10372233;28;20076;-54
2022/04/08 08:06:44;;;;;;;8.80;1.05;;;16.70;62.70;;;;;;10358597;28;20406;-52
2022/04/08 08:11:44;;;;;;;9.05;1.92;;;16.70;64.80;;;;;;10388190;28;20555;-51
2022/04/08 08:16:45;;;;;;;7.82;1.95;;;16.70;65.00;;;;;;10416941;28;20061;-49
2022/04/08 08:21:46;;;;;;;7.72;2.72;;;16.80;66.10;;;;;;10372282;28;20124;-53
2022/04/08 08:26:47;;;;;;;8.55;1.58;;;16.90;64.80;;;;;;10402901;28;20652;-54
2022/04/08 08:31:47;;;;;;;9.65;1.85;;;16.90;63.90;;;;;;10374957;28;20037;-54
2022/04/08 08:36:48;;;;;;;18.80;2.45;;;16.90;63.60;;;;;;10385270;28;20493;-55
2022/04/08 08:41:49;;;;;;;11.75;1.88;;;16.90;64.00;;;;;;10396743;28;20033;-53
2022/04/08 08:46:56;;;;;;;8.13;1.85;;;16.90;63.80;;;;;;10383029;28;20381;-54
2022/04/08 08:51:59;;;;;;;9.20;1.40;;;16.80;64.00;;;;;;10415777;28;20496;-53
2022/04/08 08:57:00;;;;;;;5.80;1.40;;;16.80;63.70;;;;;;10384874;28;20424;-55
2022/04/08 09:02:02;;;;;;;7.63;1.92;;;16.80;63.60;;;;;;10384560;28;20044;-50
2022/04/08 09:07:05;;;;;;;6.05;1.58;;;16.80;63.50;;;;;;10394912;28;20041;-53
2022/04/08 09:12:12;;;;;;;6.25;1.67;;;16.80;63.50;;;;;;10373607;28;20524;-53
2022/04/08 09:17:12;;;;;;;4.07;1.00;;;16.70;63.40;;;;;;10401737;28;20026;-51
2022/04/08 09:22:13;;;;;;;5.70;1.23;;;16.70;63.50;;;;;;10414432;28;20084;-54
2022/04/08 09:27:14;;;;;;;6.00;1.63;;;16.70;63.50;;;;;;10414258;28;20150;-55
2022/04/08 09:32:15;;;;;;;7.22;1.70;;;16.80;69.60;;;;;;10414087;28;20389;-54
2022/04/08 09:37:17;;;;;;;5.85;1.38;;;16.90;68.00;;;;;;10383927;28;20055;-52
2022/04/08 09:42:18;;;;;;;4.78;1.40;;;16.90;67.80;;;;;;10376787;28;20025;-53
2022/04/08 09:47:19;;;;;;;6.80;1.67;;;16.80;67.80;;;;;;10398648;28;20038;-51
2022/04/08 09:52:21;;;;;;;8.88;1.20;;;16.80;67.50;;;;;;10371769;28;20466;-53
2022/04/08 09:57:22;;;;;;;7.63;1.98;;;16.80;67.20;;;;;;10372486;28;20030;-52
2022/04/08 10:02:26;;;;;;;9.88;1.15;;;16.80;66.60;;;;;;10372284;28;20428;-51
2022/04/08 10:07:28;;;;;;;6.88;1.77;;;16.80;66.60;;;;;;10383455;28;20056;-52
2022/04/08 10:13:20;;;;;;;5.50;1.85;;;16.80;67.10;;;;;;10378482;28;20033;-51
2022/04/08 10:18:20;;;;;;;4.43;1.30;;;16.80;67.10;;;;;;10398724;28;20065;-54
2022/04/08 10:23:22;;;;;;;7.55;1.33;;;16.80;67.20;;;;;;10371741;28;20085;-54
2022/04/08 10:28:35;;;;;;;7.88;1.63;;;16.80;67.30;;;;;;10368901;28;20030;-54
2022/04/08 10:33:56;;;;;;;5.28;1.30;;;16.90;67.00;;;;;;10394060;28;20059;-53
2022/04/08 10:39:12;;;;;;;5.07;1.10;;;16.90;67.00;;;;;;10406154;28;20034;-51
2022/04/08 10:44:13;;;;;;;6.95;1.40;;;16.80;67.60;;;;;;10374773;28;20390;-52
2022/04/08 10:49:14;;;;;;;7.65;1.73;;;16.70;67.20;;;;;;10389179;28;20486;-51
2022/04/08 10:54:15;;;;;;;4.88;1.25;;;16.60;67.60;;;;;;10412008;28;20087;-53
2022/04/08 10:59:26;;;;;;;8.93;1.75;;;16.60;67.20;;;;;;10411463;28;20116;-53
2022/04/08 11:04:28;;;;;;;4.97;1.10;;;16.50;67.60;;;;;;10391227;28;20029;-54
2022/04/08 11:09:31;;;;;;;4.05;1.27;;;16.40;67.30;;;;;;10376445;28;20062;-54
2022/04/08 11:14:32;;;;;;;7.63;1.90;;;16.40;67.40;;;;;;10378641;28;20386;-54
2022/04/08 11:19:32;;;;;;;7.32;1.45;;;16.40;68.70;;;;;;10415498;28;20121;-53
2022/04/08 11:24:39;;;;;;;18.75;2.38;;;16.40;68.00;;;;;;10387978;28;20496;-52
2022/04/08 11:29:40;;;;;;;9.00;1.88;;;16.40;68.80;;;;;;10400149;28;20033;-52
2022/04/08 11:34:41;;;;;;;19.80;2.00;;;16.40;68.80;;;;;;10386560;28;20033;-50
2022/04/08 11:39:42;;;;;;;9.73;2.05;;;16.40;67.60;;;;;;10379447;28;20104;-49
2022/04/08 11:44:44;;;;;;;8.80;2.42;;;16.50;66.50;;;;;;10404311;28;20514;-50
2022/04/08 11:49:45;;;;;;;21.73;2.20;;;16.50;66.40;;;;;;10418218;28;20497;-49
2022/04/08 11:54:47;;;;;;;11.18;1.48;;;16.50;66.60;;;;;;10391973;28;20109;-50
2022/04/08 11:59:50;;;;;;;11.75;1.60;;;16.50;66.30;;;;;;10375154;28;20038;-48
2022/04/08 12:04:51;;;;;;;12.85;2.35;;;16.60;65.90;;;;;;10375032;28;20410;-48
2022/04/08 12:09:53;;;;;;;4.07;1.20;;;16.60;65.80;;;;;;10368718;28;20474;-49
2022/04/08 12:14:55;;;;;;;9.48;1.40;;;16.70;65.70;;;;;;10376942;28;20042;-48
2022/04/08 12:19:56;;;;;;;12.70;1.52;;;16.50;65.90;;;;;;10402765;28;20538;-48
2022/04/08 12:24:59;;;;;;;8.77;1.40;;;16.60;65.00;;;;;;10372965;28;20029;-52
2022/04/08 12:30:03;;;;;;;23.15;3.67;;;16.70;65.10;;;;;;10405643;28;20034;-48
2022/04/08 12:35:12;;;;;;;11.90;1.75;;;16.80;65.30;;;;;;10386197;28;20397;-47
2022/04/08 12:40:13;;;;;;;11.77;3.40;;;16.70;65.70;;;;;;10375223;28;20036;-48
2022/04/08 12:45:14;;;;;;;11.68;3.92;;;16.70;65.60;;;;;;10398346;28;20044;-49
2022/04/08 12:50:15;;;;;;;10.73;2.65;;;16.70;65.30;;;;;;10381051;28;20458;-50
2022/04/08 12:55:16;;;;;;;11.82;5.57;;;16.80;63.30;;;;;;10388471;28;20070;-49
2022/04/08 13:00:17;;;;;;;12.85;4.18;;;16.90;64.40;;;;;;10372882;28;20041;-53
2022/04/08 13:05:18;;;;;;;11.30;3.30;;;17.00;64.00;;;;;;10373685;28;20508;-49
2022/04/08 13:10:20;;;;;;;6.28;2.15;;;17.10;62.60;;;;;;10375565;28;20363;-50
2022/04/08 13:15:21;;;;;;;10.23;3.00;;;17.10;62.20;;;;;;10413968;28;20041;-53
2022/04/08 13:20:22;;;;;;;10.25;3.15;;;17.10;61.90;;;;;;10410979;28;20025;-48
2022/04/08 13:25:24;;;;;;;13.20;3.13;;;17.30;61.50;;;;;;10373589;28;20042;-47
2022/04/08 13:30:24;;;;;;;25.30;4.03;;;17.30;62.20;;;;;;10372746;28;20041;-47
2022/04/08 13:35:26;;;;;;;16.08;3.47;;;17.40;62.50;;;;;;10364299;28;20026;-49
2022/04/08 13:40:27;;;;;;;18.77;4.00;;;17.50;62.60;;;;;;10372577;28;20379;-46
2022/04/08 13:45:28;;;;;;;20.95;4.40;;;17.50;63.00;;;;;;10389286;28;20112;-49
2022/04/08 13:50:29;;;;;;;20.13;4.32;;;17.50;63.30;;;;;;10409827;28;20121;-47
2022/04/08 13:55:30;;;;;;;21.00;3.83;;;17.50;63.60;;;;;;10396002;28;20034;-50
2022/04/08 14:00:32;;;;;;;16.98;3.75;;;17.40;64.00;;;;;;10372323;28;20040;-48
2022/04/08 14:05:33;;;;;;;12.57;3.03;;;17.40;64.50;;;;;;10371781;28;20363;-48
2022/04/08 14:10:34;;;;;;;19.92;3.38;;;17.40;64.40;;;;;;10390695;28;20030;-51
2022/04/08 14:15:35;;;;;;;17.67;3.95;;;17.40;65.20;;;;;;10381060;28;20045;-50
2022/04/08 14:20:36;;;;;;;32.45;6.20;;;17.20;65.30;;;;;;10412460;28;20025;-47
2022/04/08 14:25:37;;;;;;;41.78;6.18;;;17.10;65.80;;;;;;10412541;28;20029;-48
2022/04/08 14:30:40;;;;;;;22.77;4.70;;;17.10;66.10;;;;;;10388601;28;20120;-51
2022/04/08 14:35:41;;;;;;;29.05;5.05;;;17.10;64.70;;;;;;10379690;28;20083;-54
2022/04/08 14:40:42;;;;;;;18.85;3.90;;;17.00;64.70;;;;;;10376621;28;20084;-52
2022/04/08 14:45:43;;;;;;;16.20;3.45;;;16.90;64.60;;;;;;10415558;28;20100;-50
2022/04/08 14:50:44;;;;;;;31.67;4.57;;;16.90;64.50;;;;;;10420472;28;20120;-53
2022/04/08 14:55:45;;;;;;;13.90;3.60;;;16.90;64.50;;;;;;10397025;28;20061;-53
2022/04/08 15:00:46;;;;;;;13.73;4.10;;;16.90;64.50;;;;;;10387890;28;20029;-53
2022/04/08 15:05:47;;;;;;;15.55;3.00;;;16.80;64.40;;;;;;10366610;28;20525;-50
2022/04/08 15:10:50;;;;;;;10.80;2.72;;;16.80;64.40;;;;;;10385794;28;20073;-50
2022/04/08 15:15:50;;;;;;;13.05;2.72;;;16.80;64.30;;;;;;10381349;28;20025;-52
2022/04/08 15:20:53;;;;;;;15.18;4.10;;;16.70;65.20;;;;;;10378162;28;20030;-48
2022/04/08 15:25:54;;;;;;;9.35;2.65;;;16.80;64.20;;;;;;10378116;28;20065;-46
2022/04/08 15:30:54;;;;;;;16.45;2.83;;;16.90;64.80;;;;;;10386889;28;20056;-50
2022/04/08 15:35:55;;;;;;;9.95;2.60;;;17.00;64.50;;;;;;10385444;28;20104;-50
2022/04/08 15:40:58;;;;;;;12.77;2.53;;;17.20;64.50;;;;;;10368574;28;20543;-53
2022/04/08 15:45:59;;;;;;;13.93;3.60;;;17.30;64.70;;;;;;10383156;28;20196;-50
2022/04/08 15:51:00;;;;;;;13.45;3.45;;;17.40;64.80;;;;;;10383490;28;20021;-49
2022/04/08 15:56:00;;;;;;;10.88;2.47;;;17.70;64.40;;;;;;10399941;28;20378;-53
2022/04/08 16:01:01;;;;;;;15.32;3.45;;;17.80;64.40;;;;;;10376399;28;20112;-49
2022/04/08 16:06:02;;;;;;;11.65;2.05;;;17.50;65.20;;;;;;10376168;28;20405;-52
2022/04/08 16:11:05;;;;;;;10.98;2.20;;;17.30;65.70;;;;;;10388350;28;20048;-52
2022/04/08 16:16:06;;;;;;;12.60;2.38;;;17.30;66.20;;;;;;10416466;28;20049;-55
2022/04/08 16:21:09;;;;;;;10.68;2.70;;;17.20;66.00;;;;;;10385520;28;20057;-50
2022/04/08 16:26:10;;;;;;;19.35;3.83;;;17.30;68.20;;;;;;10375790;28;20030;-47
2022/04/08 16:31:11;;;;;;;16.00;3.60;;;17.40;68.40;;;;;;10375766;28;20033;-46
2022/04/08 16:36:11;;;;;;;18.92;3.65;;;17.30;67.70;;;;;;10386185;28;20030;-47
2022/04/08 16:41:12;;;;;;;20.38;2.67;;;17.30;68.90;;;;;;10375889;28;20042;-52
2022/04/08 16:46:13;;;;;;;11.88;2.72;;;17.30;68.90;;;;;;10415767;28;20095;-50
2022/04/08 16:51:14;;;;;;;11.30;3.40;;;17.20;68.40;;;;;;10415372;28;20489;-49
2022/04/08 16:56:15;;;;;;;11.25;2.90;;;17.20;68.10;;;;;;10415961;28;20072;-48
2022/04/08 17:01:16;;;;;;;12.45;3.38;;;17.10;67.90;;;;;;10410180;28;20087;-48
2022/04/08 17:06:17;;;;;;;17.58;4.15;;;17.10;67.80;;;;;;10396532;28;20732;-49
2022/04/08 17:11:17;;;;;;;10.50;2.63;;;17.10;67.90;;;;;;10400476;28;20513;-51
2022/04/08 17:16:18;;;;;;;9.25;2.72;;;16.90;67.40;;;;;;10390257;28;20065;-48
2022/04/08 17:21:19;;;;;;;9.23;2.13;;;16.90;67.40;;;;;;10388616;28;20040;-50
2022/04/08 17:26:20;;;;;;;8.32;1.60;;;16.90;67.70;;;;;;10369348;28;20533;-51
2022/04/08 17:31:28;;;;;;;10.15;2.22;;;16.80;67.70;;;;;;10545590;27;20401;-48
2022/04/08 17:36:29;;;;;;;11.73;3.10;;;16.80;67.50;;;;;;10511080;28;20470;-46
2022/04/08 17:41:31;;;;;;;13.90;3.50;;;16.80;67.50;;;;;;10510043;28;20391;-51
2022/04/08 17:46:32;;;;;;;10.85;2.70;;;16.80;67.40;;;;;;10493415;28;20032;-49
2022/04/08 17:51:34;;;;;;;13.85;2.20;;;16.80;67.70;;;;;;10508474;28;20063;-51
2022/04/08 17:56:36;;;;;;;7.93;1.90;;;16.80;67.70;;;;;;10483124;28;20106;-49
2022/04/08 18:01:37;;;;;;;11.57;2.92;;;16.80;67.70;;;;;;10489263;28;20021;-49
2022/04/08 18:06:39;;;;;;;6.07;2.13;;;16.80;67.70;;;;;;10488502;28;20033;-49
2022/04/08 18:11:40;;;;;;;8.70;2.60;;;16.80;67.70;;;;;;10504212;28;20112;-49
2022/04/08 18:16:40;;;;;;;10.18;2.20;;;16.80;67.70;;;;;;10488471;28;20032;-52
2022/04/08 18:21:41;;;;;;;4.95;1.65;;;16.80;67.80;;;;;;10482919;28;20044;-50
2022/04/08 18:26:42;;;;;;;6.80;1.52;;;16.80;67.80;;;;;;10499978;28;20039;-50
2022/04/08 18:31:43;;;;;;;6.88;1.50;;;16.80;67.90;;;;;;10486980;28;20155;-48
2022/04/08 18:36:43;;;;;;;7.82;2.10;;;16.80;67.70;;;;;;10484996;28;20503;-48
2022/04/08 18:41:45;;;;;;;4.80;1.70;;;16.80;67.40;;;;;;10465576;28;20103;-47
2022/04/08 18:46:48;;;;;;;6.13;1.35;;;16.80;67.40;;;;;;10457947;28;20030;-49
2022/04/08 18:51:48;;;;;;;6.43;1.55;;;16.80;67.10;;;;;;10443140;28;20014;-47
2022/04/08 18:56:49;;;;;;;7.32;1.63;;;16.70;66.70;;;;;;10419541;28;20120;-48
2022/04/08 19:01:50;;;;;;;5.50;1.38;;;16.80;66.60;;;;;;10422817;28;20040;-48
2022/04/08 19:06:51;;;;;;;6.85;1.75;;;16.80;66.30;;;;;;10429306;28;20044;-48
2022/04/08 19:11:53;;;;;;;9.57;3.45;;;16.80;66.00;;;;;;10420538;28;20032;-47
2022/04/08 19:16:56;;;;;;;8.57;1.58;;;16.90;66.00;;;;;;10425097;28;20094;-51
2022/04/08 19:21:57;;;;;;;4.78;1.38;;;16.80;66.00;;;;;;10426821;28;20468;-47
2022/04/08 19:26:57;;;;;;;6.80;1.83;;;16.90;65.70;;;;;;10435237;28;20049;-48
2022/04/08 19:31:58;;;;;;;3.28;1.00;;;16.90;65.50;;;;;;10434368;28;20100;-47
2022/04/08 19:37:03;;;;;;;6.00;1.67;;;16.90;65.50;;;;;;10450380;28;20040;-50
2022/04/08 19:42:05;;;;;;;7.88;1.27;;;17.00;65.30;;;;;;10456223;28;20411;-49
2022/04/08 19:47:07;;;;;;;4.40;1.23;;;17.00;65.00;;;;;;10458642;28;20112;-49
2022/04/08 19:52:08;;;;;;;5.70;1.02;;;17.00;65.10;;;;;;10455379;28;20476;-50
2022/04/08 19:57:09;;;;;;;3.78;0.98;;;17.00;65.10;;;;;;10455140;28;20159;-50
2022/04/08 20:02:10;;;;;;;3.88;0.80;;;17.00;65.10;;;;;;10455329;28;20385;-51
2022/04/08 20:07:11;;;;;;;4.18;1.20;;;17.00;65.10;;;;;;10454414;28;20462;-48
2022/04/08 20:12:12;;;;;;;2.30;1.00;;;16.90;65.00;;;;;;10453889;28;20021;-49
2022/04/08 20:17:13;;;;;;;4.40;1.08;;;17.00;64.70;;;;;;10452881;28;20032;-50
2022/04/08 20:22:14;;;;;;;3.33;1.33;;;17.10;64.30;;;;;;10455548;28;20032;-52
2022/04/08 20:27:15;;;;;;;4.85;1.10;;;17.10;64.40;;;;;;10455883;28;20052;-52
2022/04/08 20:32:16;;;;;;;7.22;1.35;;;17.10;64.30;;;;;;10455637;28;20032;-51
2022/04/08 20:37:17;;;;;;;2.42;0.70;;;17.10;64.00;;;;;;10463911;28;20125;-51
2022/04/08 20:42:18;;;;;;;4.28;1.00;;;17.10;64.00;;;;;;10455630;28;20040;-52
2022/04/08 20:47:19;;;;;;;4.00;0.90;;;17.20;63.70;;;;;;10455042;28;20413;-48
2022/04/08 20:52:20;;;;;;;3.78;0.95;;;17.20;63.80;;;;;;10455300;28;20100;-52
2022/04/08 20:57:21;;;;;;;3.20;1.25;;;17.10;63.90;;;;;;10453700;28;20090;-50
2022/04/08 21:02:22;;;;;;;2.42;0.93;;;17.10;64.00;;;;;;10454935;28;20028;-49
2022/04/08 21:07:23;;;;;;;2.00;0.70;;;17.10;63.70;;;;;;10453069;28;20029;-48
2022/04/08 21:12:24;;;;;;;4.28;1.05;;;17.10;63.60;;;;;;10454625;28;20159;-47
2022/04/08 21:17:25;;;;;;;2.75;0.80;;;17.10;63.50;;;;;;10454450;28;20114;-48
2022/04/08 21:22:25;;;;;;;2.08;0.57;;;17.20;63.30;;;;;;10454365;28;20568;-51
2022/04/08 21:27:26;;;;;;;3.42;1.05;;;17.20;63.30;;;;;;10453962;28;20520;-48
2022/04/08 21:32:27;;;;;;;3.83;0.75;;;17.10;63.40;;;;;;10452943;28;20031;-49
2022/04/08 21:37:29;;;;;;;2.67;0.50;;;17.10;63.50;;;;;;10462665;28;20121;-49
2022/04/08 21:42:30;;;;;;;2.95;1.00;;;17.10;63.30;;;;;;10441146;28;20087;-52
2022/04/08 21:47:32;;;;;;;1.67;0.88;;;17.10;63.30;;;;;;10453662;28;20029;-51
2022/04/08 21:52:33;;;;;;;4.82;1.08;;;17.00;63.50;;;;;;10452938;28;20053;-52
2022/04/08 21:57:34;;;;;;;1.30;0.50;;;17.10;63.30;;;;;;10453780;28;20246;-49
2022/04/08 22:02:35;;;;;;;1.42;0.70;;;17.20;63.10;;;;;;10453646;28;20461;-49
2022/04/08 22:07:36;;;;;;;2.08;0.90;;;17.20;62.70;;;;;;10452960;28;20045;-50
2022/04/08 22:12:37;;;;;;;1.60;0.50;;;17.20;62.70;;;;;;10453742;28;20433;-50
2022/04/08 22:17:38;;;;;;;3.30;0.68;;;17.20;63.00;;;;;;10459981;28;20481;-48
2022/04/08 22:22:39;;;;;;;1.58;0.80;;;17.20;62.90;;;;;;10461203;28;20029;-48
2022/04/08 22:27:40;;;;;;;2.30;0.50;;;17.20;62.70;;;;;;10460257;28;20071;-49
2022/04/08 22:32:41;;;;;;;1.40;0.77;;;17.10;62.90;;;;;;10460612;28;20036;-48
2022/04/08 22:37:42;;;;;;;2.33;0.80;;;17.10;62.70;;;;;;10469344;28;20366;-49
2022/04/08 22:42:43;;;;;;;1.33;0.52;;;17.10;62.80;;;;;;10460144;28;20072;-51
2022/04/08 22:47:44;;;;;;;0.90;0.45;;;17.20;62.70;;;;;;10458813;28;20465;-50
2022/04/08 22:52:45;;;;;;;2.20;0.70;;;17.20;62.60;;;;;;10459993;28;20087;-50
2022/04/08 22:57:46;;;;;;;1.67;0.52;;;17.20;62.30;;;;;;10459571;28;20486;-50
2022/04/08 23:02:48;;;;;;;6.53;1.25;;;17.20;62.40;;;;;;10459421;28;20440;-50
2022/04/08 23:07:50;;;;;;;1.80;0.60;;;17.20;62.50;;;;;;10459140;28;20029;-48
2022/04/08 23:12:51;;;;;;;1.23;0.47;;;17.20;62.40;;;;;;10459296;28;20033;-49
2022/04/08 23:17:52;;;;;;;1.60;0.50;;;17.20;62.30;;;;;;10458758;28;20037;-50
2022/04/08 23:22:53;;;;;;;1.10;0.50;;;17.20;62.50;;;;;;10458915;28;20380;-49
2022/04/08 23:27:54;;;;;;;1.70;0.75;;;17.20;62.40;;;;;;10458329;28;20048;-52
2022/04/08 23:32:55;;;;;;;1.73;0.75;;;17.20;62.40;;;;;;10458115;28;20449;-50
2022/04/08 23:37:55;;;;;;;2.03;0.70;;;17.10;62.60;;;;;;10468162;28;20087;-52
2022/04/08 23:42:56;;;;;;;2.30;0.60;;;17.20;62.30;;;;;;10457719;28;20071;-49
2022/04/08 23:47:57;;;;;;;3.25;0.68;;;17.20;62.00;;;;;;10457545;28;20029;-48
2022/04/08 23:52:58;;;;;;;2.22;1.48;;;17.20;61.90;;;;;;10457896;28;20041;-52
2022/04/08 23:57:59;;;;;;;1.80;0.60;;;17.20;62.00;;;;;;10457437;28;20029;-49
